Overview Statistics Trail Chart Weather Telemetry Raw packets
 

This is the latest recevied weather packets stored in our database for station/object K1RFS. If no packets are shown the sender has not sent any weather packets the latest 10 day(s).

<< 78 79 80 81 82 83 84 >>
Time Temp. Humidity Pressure Rain* Wind** Luminosity Snow
1788127125 24.44° C 48% 1003.1 hPa 0 mm - 119 W/m² -
1788126825 24.44° C 49% 1003 hPa 0 mm - 143 W/m² -
1788126520 24.44° C 49% 1002.9 hPa 0 mm - 98 W/m² -
1788126216 24.44° C 49% 1002.9 hPa 0 mm - 130 W/m² -
1788125915 24.44° C 50% 1003.2 hPa 0 mm - 132 W/m² -
1788125611 23.89° C 49% 1003.3 hPa 0 mm - 145 W/m² -
1788125306 23.89° C 49% 1003.2 hPa 0 mm - 70 W/m² -
1788125002 23.89° C 48% 1003 hPa 0 mm - 77 W/m² -
1788124700 24.44° C 49% 1003 hPa 0 mm - 62 W/m² -
1788124395 24.44° C 48% 1003.1 hPa 0 mm - 78 W/m² -
1788124092 24.44° C 50% 1003.2 hPa 0 mm - 97 W/m² -
1788123790 24.44° C 52% 1003.2 hPa 0 mm - 110 W/m² -
1788123488 24.44° C 51% 1003.2 hPa 0 mm - 68 W/m² -
1788123188 25° C 52% 1003.2 hPa 0 mm - 66 W/m² -
1788122884 25° C 52% 1003 hPa 0 mm - 154 W/m² -
1788122582 25° C 52% 1002.9 hPa 0 mm - 98 W/m² -
1788122278 25.56° C 50% 1002.9 hPa 0 mm - 154 W/m² -
1788121975 26.67° C 49% 1002.9 hPa 0 mm - 170 W/m² -
1788121674 25° C 52% 1003.2 hPa 0 mm - 732 W/m² -
1788121369 24.44° C 54% 1003.1 hPa 0 mm - 137 W/m² -
1788121068 23.89° C 55% 1003.2 hPa 0 mm - 89 W/m² -
1788120763 23.89° C 55% 1003.2 hPa 0 mm - 101 W/m² -
1788120458 23.89° C 54% 1003.1 hPa 0 mm - 89 W/m² -
1788120158 24.44° C 54% 1003.2 hPa 0 mm - 115 W/m² -
1788119853 24.44° C 54% 1003.3 hPa 0 mm - 127 W/m² -

* Rain latest hour (hover to see other rain measurements)
** Current wind speed in m/s (hover to see current wind gust speed)